sensor_id;sensor_type;location;lat;lon;timestamp;pressure;altitude;pressure_sealevel;temperature;humidity
49367;BME280;35245;52.026;8.540;2022-12-29T00:01:41;-14100.28;;;-145.42;100.00
49367;BME280;35245;52.026;8.540;2022-12-29T00:04:13;-14100.28;;;-145.42;100.00
49367;BME280;35245;52.026;8.540;2022-12-29T00:06:42;-14100.28;;;-145.42;100.00
49367;BME280;35245;52.026;8.540;2022-12-29T00:09:11;-14100.28;;;-145.42;100.00
49367;BME280;35245;52.026;8.540;2022-12-29T00:11:40;-14100.28;;;-145.42;100.00
49367;BME280;35245;52.026;8.540;2022-12-29T00:14:09;-14100.28;;;-145.42;100.00
49367;BME280;35245;52.026;8.540;2022-12-29T00:16:50;-14100.28;;;-145.42;100.00
49367;BME280;35245;52.026;8.540;2022-12-29T00:19:17;-14100.28;;;-145.42;100.00
49367;BME280;35245;52.026;8.540;2022-12-29T00:22:02;-14100.28;;;-145.42;100.00
49367;BME280;35245;52.026;8.540;2022-12-29T00:24:46;-14100.28;;;-145.42;100.00
49367;BME280;35245;52.026;8.540;2022-12-29T00:27:32;-14100.28;;;-145.42;100.00
49367;BME280;35245;52.026;8.540;2022-12-29T00:30:20;-14100.28;;;-145.42;100.00
49367;BME280;35245;52.026;8.540;2022-12-29T00:33:10;-14100.28;;;-145.42;100.00
49367;BME280;35245;52.026;8.540;2022-12-29T00:35:57;-14100.28;;;-145.42;100.00
49367;BME280;35245;52.026;8.540;2022-12-29T00:38:27;-14100.28;;;-145.42;100.00
49367;BME280;35245;52.026;8.540;2022-12-29T00:41:13;-14100.28;;;-145.42;100.00
49367;BME280;35245;52.026;8.540;2022-12-29T00:43:59;-14100.28;;;-145.42;100.00
49367;BME280;35245;52.026;8.540;2022-12-29T00:46:32;-14100.28;;;-145.42;100.00
49367;BME280;35245;52.026;8.540;2022-12-29T00:49:00;-14100.28;;;-145.42;100.00
49367;BME280;35245;52.026;8.540;2022-12-29T00:51:45;-14100.28;;;-145.42;100.00
49367;BME280;35245;52.026;8.540;2022-12-29T00:54:14;-14100.28;;;-145.42;100.00
49367;BME280;35245;52.026;8.540;2022-12-29T00:56:41;-14100.28;;;-145.42;100.00
49367;BME280;35245;52.026;8.540;2022-12-29T00:59:11;-14100.28;;;-145.42;100.00
49367;BME280;35245;52.026;8.540;2022-12-29T01:01:39;-14100.28;;;-145.42;100.00
49367;BME280;35245;52.026;8.540;2022-12-29T01:04:06;-14100.28;;;-145.42;100.00
49367;BME280;35245;52.026;8.540;2022-12-29T01:06:34;-14100.28;;;-145.42;100.00
49367;BME280;35245;52.026;8.540;2022-12-29T01:09:02;-14100.28;;;-145.42;100.00
49367;BME280;35245;52.026;8.540;2022-12-29T01:11:47;-14100.28;;;-145.42;100.00
49367;BME280;35245;52.026;8.540;2022-12-29T01:14:16;-14100.28;;;-145.42;100.00
49367;BME280;35245;52.026;8.540;2022-12-29T01:16:44;-14100.28;;;-145.42;100.00
49367;BME280;35245;52.026;8.540;2022-12-29T01:19:11;-14100.28;;;-145.42;100.00
49367;BME280;35245;52.026;8.540;2022-12-29T01:21:39;-14100.28;;;-145.42;100.00
49367;BME280;35245;52.026;8.540;2022-12-29T01:24:06;-14100.28;;;-145.42;100.00
49367;BME280;35245;52.026;8.540;2022-12-29T01:26:34;-14100.28;;;-145.42;100.00
49367;BME280;35245;52.026;8.540;2022-12-29T01:29:01;-14100.28;;;-145.42;100.00
49367;BME280;35245;52.026;8.540;2022-12-29T01:31:29;-14100.28;;;-145.42;100.00
49367;BME280;35245;52.026;8.540;2022-12-29T01:33:56;-14100.28;;;-145.42;100.00
49367;BME280;35245;52.026;8.540;2022-12-29T01:36:24;-14100.28;;;-145.42;100.00
49367;BME280;35245;52.026;8.540;2022-12-29T01:38:52;-14100.28;;;-145.42;100.00
49367;BME280;35245;52.026;8.540;2022-12-29T01:41:19;-14100.28;;;-145.42;100.00
49367;BME280;35245;52.026;8.540;2022-12-29T01:43:49;-14100.28;;;-145.42;100.00
49367;BME280;35245;52.026;8.540;2022-12-29T01:46:25;-14100.28;;;-145.42;100.00
49367;BME280;35245;52.026;8.540;2022-12-29T01:49:10;-14100.28;;;-145.42;100.00
49367;BME280;35245;52.026;8.540;2022-12-29T01:51:42;-14100.28;;;-145.42;100.00
49367;BME280;35245;52.026;8.540;2022-12-29T01:54:15;-14100.28;;;-145.42;100.00
49367;BME280;35245;52.026;8.540;2022-12-29T01:56:44;-14100.28;;;-145.42;100.00
49367;BME280;35245;52.026;8.540;2022-12-29T01:59:15;-14100.28;;;-145.42;100.00
49367;BME280;35245;52.026;8.540;2022-12-29T02:01:44;-14100.28;;;-145.42;100.00
49367;BME280;35245;52.026;8.540;2022-12-29T02:04:13;-14100.28;;;-145.42;100.00
49367;BME280;35245;52.026;8.540;2022-12-29T02:06:46;-14100.28;;;-145.42;100.00
49367;BME280;35245;52.026;8.540;2022-12-29T02:09:14;-14100.28;;;-145.42;100.00
49367;BME280;35245;52.026;8.540;2022-12-29T02:11:41;-14100.28;;;-145.42;100.00
49367;BME280;35245;52.026;8.540;2022-12-29T02:14:13;-14100.28;;;-145.42;100.00
49367;BME280;35245;52.026;8.540;2022-12-29T02:16:58;-14100.28;;;-145.42;100.00
49367;BME280;35245;52.026;8.540;2022-12-29T02:20:22;-14100.28;;;-145.42;100.00
49367;BME280;35245;52.026;8.540;2022-12-29T02:23:13;-14100.28;;;-145.42;100.00
49367;BME280;35245;52.026;8.540;2022-12-29T02:26:29;-14100.28;;;-145.42;100.00
49367;BME280;35245;52.026;8.540;2022-12-29T02:29:44;-14100.28;;;-145.42;100.00
49367;BME280;35245;52.026;8.540;2022-12-29T02:32:28;-14100.28;;;-145.42;100.00
49367;BME280;35245;52.026;8.540;2022-12-29T02:35:06;-14100.28;;;-145.42;100.00
49367;BME280;35245;52.026;8.540;2022-12-29T02:37:42;-14100.28;;;-145.42;100.00
49367;BME280;35245;52.026;8.540;2022-12-29T02:40:22;-14100.28;;;-145.42;100.00
49367;BME280;35245;52.026;8.540;2022-12-29T02:42:55;-14100.28;;;-145.42;100.00
49367;BME280;35245;52.026;8.540;2022-12-29T02:45:30;-14100.28;;;-145.42;100.00
49367;BME280;35245;52.026;8.540;2022-12-29T02:48:06;-14100.28;;;-145.42;100.00
49367;BME280;35245;52.026;8.540;2022-12-29T02:50:39;-14100.28;;;-145.42;100.00
49367;BME280;35245;52.026;8.540;2022-12-29T02:53:12;-14100.28;;;-145.42;100.00
49367;BME280;35245;52.026;8.540;2022-12-29T02:55:48;-14100.28;;;-145.42;100.00
49367;BME280;35245;52.026;8.540;2022-12-29T02:58:19;-14100.28;;;-145.42;100.00
49367;BME280;35245;52.026;8.540;2022-12-29T03:01:00;-14100.28;;;-145.42;100.00
49367;BME280;35245;52.026;8.540;2022-12-29T03:03:45;-14100.28;;;-145.42;100.00
49367;BME280;35245;52.026;8.540;2022-12-29T03:06:35;-14100.28;;;-145.42;100.00
49367;BME280;35245;52.026;8.540;2022-12-29T03:09:14;-14100.28;;;-145.42;100.00
49367;BME280;35245;52.026;8.540;2022-12-29T03:11:58;-14100.28;;;-145.42;100.00
49367;BME280;35245;52.026;8.540;2022-12-29T03:14:44;-14100.28;;;-145.42;100.00
49367;BME280;35245;52.026;8.540;2022-12-29T03:17:46;-14100.28;;;-145.42;100.00
49367;BME280;35245;52.026;8.540;2022-12-29T03:20:23;-14100.28;;;-145.42;100.00
49367;BME280;35245;52.026;8.540;2022-12-29T03:22:58;-14100.28;;;-145.42;100.00
49367;BME280;35245;52.026;8.540;2022-12-29T03:25:30;-14100.28;;;-145.42;100.00
49367;BME280;35245;52.026;8.540;2022-12-29T03:28:02;-14100.28;;;-145.42;100.00
49367;BME280;35245;52.026;8.540;2022-12-29T03:30:31;-14100.28;;;-145.42;100.00
49367;BME280;35245;52.026;8.540;2022-12-29T03:33:04;-14100.28;;;-145.42;100.00
49367;BME280;35245;52.026;8.540;2022-12-29T03:35:36;-14100.28;;;-145.42;100.00
49367;BME280;35245;52.026;8.540;2022-12-29T03:38:09;-14100.28;;;-145.42;100.00
49367;BME280;35245;52.026;8.540;2022-12-29T03:40:42;-14100.28;;;-145.42;100.00
49367;BME280;35245;52.026;8.540;2022-12-29T03:43:11;-14100.28;;;-145.42;100.00
49367;BME280;35245;52.026;8.540;2022-12-29T03:45:39;-14100.28;;;-145.42;100.00
49367;BME280;35245;52.026;8.540;2022-12-29T03:48:07;-14100.28;;;-145.42;100.00
49367;BME280;35245;52.026;8.540;2022-12-29T03:50:35;-14100.28;;;-145.42;100.00
49367;BME280;35245;52.026;8.540;2022-12-29T03:53:03;-14100.28;;;-145.42;100.00
49367;BME280;35245;52.026;8.540;2022-12-29T03:55:30;-14100.28;;;-145.42;100.00
49367;BME280;35245;52.026;8.540;2022-12-29T03:57:57;-14100.28;;;-145.42;100.00
49367;BME280;35245;52.026;8.540;2022-12-29T04:00:24;-14100.28;;;-145.42;100.00
49367;BME280;35245;52.026;8.540;2022-12-29T04:02:52;-14100.28;;;-145.42;100.00
49367;BME280;35245;52.026;8.540;2022-12-29T04:05:19;-14100.28;;;-145.42;100.00
49367;BME280;35245;52.026;8.540;2022-12-29T04:07:47;-14100.28;;;-145.42;100.00
49367;BME280;35245;52.026;8.540;2022-12-29T04:10:15;-14100.28;;;-145.42;100.00
49367;BME280;35245;52.026;8.540;2022-12-29T04:12:42;-14100.28;;;-145.42;100.00
49367;BME280;35245;52.026;8.540;2022-12-29T04:15:11;-14100.28;;;-145.42;100.00
49367;BME280;35245;52.026;8.540;2022-12-29T04:17:38;-14100.28;;;-145.42;100.00
49367;BME280;35245;52.026;8.540;2022-12-29T04:20:07;-14100.28;;;-145.42;100.00
49367;BME280;35245;52.026;8.540;2022-12-29T04:22:59;-14100.28;;;-145.42;100.00
49367;BME280;35245;52.026;8.540;2022-12-29T04:25:27;-14100.28;;;-145.42;100.00
49367;BME280;35245;52.026;8.540;2022-12-29T04:27:54;-14100.28;;;-145.42;100.00
49367;BME280;35245;52.026;8.540;2022-12-29T04:30:21;-14100.28;;;-145.42;100.00
49367;BME280;35245;52.026;8.540;2022-12-29T04:32:49;-14100.28;;;-145.42;100.00
49367;BME280;35245;52.026;8.540;2022-12-29T04:35:16;-14100.28;;;-145.42;100.00
49367;BME280;35245;52.026;8.540;2022-12-29T04:37:43;-14100.28;;;-145.42;100.00
49367;BME280;35245;52.026;8.540;2022-12-29T04:40:12;-14100.28;;;-145.42;100.00
49367;BME280;35245;52.026;8.540;2022-12-29T04:42:39;-14100.28;;;-145.42;100.00
49367;BME280;35245;52.026;8.540;2022-12-29T04:45:08;-14100.28;;;-145.42;100.00
49367;BME280;35245;52.026;8.540;2022-12-29T04:47:35;-14100.28;;;-145.42;100.00
49367;BME280;35245;52.026;8.540;2022-12-29T04:50:03;-14100.28;;;-145.42;100.00
49367;BME280;35245;52.026;8.540;2022-12-29T04:52:30;-14100.28;;;-145.42;100.00
49367;BME280;35245;52.026;8.540;2022-12-29T04:54:58;-14100.28;;;-145.42;100.00
49367;BME280;35245;52.026;8.540;2022-12-29T04:57:26;-14100.28;;;-145.42;100.00
49367;BME280;35245;52.026;8.540;2022-12-29T04:59:54;-14100.28;;;-145.42;100.00
49367;BME280;35245;52.026;8.540;2022-12-29T05:02:21;-14100.28;;;-145.42;100.00
49367;BME280;35245;52.026;8.540;2022-12-29T05:04:48;-14100.28;;;-145.42;100.00
49367;BME280;35245;52.026;8.540;2022-12-29T05:07:15;-14100.28;;;-145.42;100.00
49367;BME280;35245;52.026;8.540;2022-12-29T05:09:43;-14100.28;;;-145.42;100.00
49367;BME280;35245;52.026;8.540;2022-12-29T05:12:10;-14100.28;;;-145.42;100.00
49367;BME280;35245;52.026;8.540;2022-12-29T05:14:38;-14100.28;;;-145.42;100.00
49367;BME280;35245;52.026;8.540;2022-12-29T05:17:05;-14100.28;;;-145.42;100.00
49367;BME280;35245;52.026;8.540;2022-12-29T05:19:33;-14100.28;;;-145.42;100.00
49367;BME280;35245;52.026;8.540;2022-12-29T05:22:00;-14100.28;;;-145.42;100.00
49367;BME280;35245;52.026;8.540;2022-12-29T05:24:27;-14100.28;;;-145.42;100.00
49367;BME280;35245;52.026;8.540;2022-12-29T05:26:55;-14100.28;;;-145.42;100.00
49367;BME280;35245;52.026;8.540;2022-12-29T05:29:22;-14100.28;;;-145.42;100.00
49367;BME280;35245;52.026;8.540;2022-12-29T05:31:50;-14100.28;;;-145.42;100.00
49367;BME280;35245;52.026;8.540;2022-12-29T05:34:17;-14100.28;;;-145.42;100.00
49367;BME280;35245;52.026;8.540;2022-12-29T05:36:45;-14100.28;;;-145.42;100.00
49367;BME280;35245;52.026;8.540;2022-12-29T05:39:12;-14100.28;;;-145.42;100.00
49367;BME280;35245;52.026;8.540;2022-12-29T05:41:39;-14100.28;;;-145.42;100.00
49367;BME280;35245;52.026;8.540;2022-12-29T05:44:06;-14100.28;;;-145.42;100.00
49367;BME280;35245;52.026;8.540;2022-12-29T05:46:33;-14100.28;;;-145.42;100.00
49367;BME280;35245;52.026;8.540;2022-12-29T05:49:02;-14100.28;;;-145.42;100.00
49367;BME280;35245;52.026;8.540;2022-12-29T05:51:29;-14100.28;;;-145.42;100.00
49367;BME280;35245;52.026;8.540;2022-12-29T05:53:56;-14100.28;;;-145.42;100.00
49367;BME280;35245;52.026;8.540;2022-12-29T05:56:24;-14100.28;;;-145.42;100.00
49367;BME280;35245;52.026;8.540;2022-12-29T05:58:51;-14100.28;;;-145.42;100.00
49367;BME280;35245;52.026;8.540;2022-12-29T06:01:18;-14100.28;;;-145.42;100.00
49367;BME280;35245;52.026;8.540;2022-12-29T06:03:45;-14100.28;;;-145.42;100.00
49367;BME280;35245;52.026;8.540;2022-12-29T06:06:14;-14100.28;;;-145.42;100.00
49367;BME280;35245;52.026;8.540;2022-12-29T06:08:41;-14100.28;;;-145.42;100.00
49367;BME280;35245;52.026;8.540;2022-12-29T06:11:09;-14100.28;;;-145.42;100.00
49367;BME280;35245;52.026;8.540;2022-12-29T06:13:36;-14100.28;;;-145.42;100.00
49367;BME280;35245;52.026;8.540;2022-12-29T06:16:04;-14100.28;;;-145.42;100.00
49367;BME280;35245;52.026;8.540;2022-12-29T06:18:31;-14100.28;;;-145.42;100.00
49367;BME280;35245;52.026;8.540;2022-12-29T06:21:00;-14100.28;;;-145.42;100.00
49367;BME280;35245;52.026;8.540;2022-12-29T06:23:29;-14100.28;;;-145.42;100.00
49367;BME280;35245;52.026;8.540;2022-12-29T06:25:56;-14100.28;;;-145.42;100.00
49367;BME280;35245;52.026;8.540;2022-12-29T06:28:24;115521.78;;;-145.42;100.00
49367;BME280;35245;52.026;8.540;2022-12-29T06:30:51;115781.63;;;-145.42;100.00
49367;BME280;35245;52.026;8.540;2022-12-29T06:33:18;115781.63;;;-145.42;100.00
49367;BME280;35245;52.026;8.540;2022-12-29T06:35:46;115781.63;;;-145.42;100.00
49367;BME280;35245;52.026;8.540;2022-12-29T06:38:13;115781.63;;;-145.42;100.00
49367;BME280;35245;52.026;8.540;2022-12-29T06:40:43;115781.63;;;-145.42;100.00
49367;BME280;35245;52.026;8.540;2022-12-29T06:43:11;115781.63;;;-145.42;100.00
49367;BME280;35245;52.026;8.540;2022-12-29T06:45:39;115781.63;;;-145.42;100.00
49367;BME280;35245;52.026;8.540;2022-12-29T06:48:06;115781.63;;;-145.42;100.00
49367;BME280;35245;52.026;8.540;2022-12-29T06:50:34;115781.63;;;-145.42;100.00
49367;BME280;35245;52.026;8.540;2022-12-29T06:53:01;115781.63;;;-145.42;100.00
49367;BME280;35245;52.026;8.540;2022-12-29T06:55:28;115781.63;;;-145.42;100.00
49367;BME280;35245;52.026;8.540;2022-12-29T06:57:58;115781.63;;;-145.42;100.00
49367;BME280;35245;52.026;8.540;2022-12-29T07:00:26;115781.63;;;-145.42;100.00
49367;BME280;35245;52.026;8.540;2022-12-29T07:02:55;115781.63;;;-145.42;100.00
49367;BME280;35245;52.026;8.540;2022-12-29T07:05:24;115781.63;;;-145.42;100.00
49367;BME280;35245;52.026;8.540;2022-12-29T07:07:53;115781.63;;;-145.42;100.00
49367;BME280;35245;52.026;8.540;2022-12-29T07:10:20;113202.00;;;-145.42;100.00
49367;BME280;35245;52.026;8.540;2022-12-29T07:12:48;102739.13;;;-145.42;100.00
49367;BME280;35245;52.026;8.540;2022-12-29T07:15:16;99936.97;;;-145.42;100.00
49367;BME280;35245;52.026;8.540;2022-12-29T07:17:44;98604.84;;;-145.42;100.00
49367;BME280;35245;52.026;8.540;2022-12-29T07:20:11;97868.75;;;-145.42;100.00
49367;BME280;35245;52.026;8.540;2022-12-29T07:22:38;111398.63;;;-145.42;100.00
49367;BME280;35245;52.026;8.540;2022-12-29T07:25:06;113459.69;;;-145.42;100.00
49367;BME280;35245;52.026;8.540;2022-12-29T07:27:34;111656.19;;;-145.42;100.00
49367;BME280;35245;52.026;8.540;2022-12-29T07:30:01;80863.47;;;-145.42;100.00
49367;BME280;35245;52.026;8.540;2022-12-29T07:32:32;-13751.84;;;-145.42;100.00
49367;BME280;35245;52.026;8.540;2022-12-29T07:35:00;-14100.28;;;-145.42;100.00
49367;BME280;35245;52.026;8.540;2022-12-29T07:37:28;-14100.28;;;-145.42;100.00
49367;BME280;35245;52.026;8.540;2022-12-29T07:39:55;-14100.28;;;-145.42;100.00
49367;BME280;35245;52.026;8.540;2022-12-29T07:42:22;-14100.28;;;-145.42;100.00
49367;BME280;35245;52.026;8.540;2022-12-29T07:44:49;-14100.28;;;-145.42;100.00
49367;BME280;35245;52.026;8.540;2022-12-29T07:47:17;-14100.28;;;-145.42;100.00
49367;BME280;35245;52.026;8.540;2022-12-29T07:49:45;-14100.28;;;-145.42;100.00
49367;BME280;35245;52.026;8.540;2022-12-29T07:52:13;-14100.28;;;-145.42;100.00
49367;BME280;35245;52.026;8.540;2022-12-29T07:54:40;-14100.28;;;-145.42;100.00
49367;BME280;35245;52.026;8.540;2022-12-29T07:57:07;-14100.28;;;-145.42;100.00
49367;BME280;35245;52.026;8.540;2022-12-29T07:59:34;-14100.28;;;-145.42;100.00
49367;BME280;35245;52.026;8.540;2022-12-29T08:02:02;-14100.28;;;-145.42;100.00
49367;BME280;35245;52.026;8.540;2022-12-29T08:04:29;-14100.28;;;-145.42;100.00
49367;BME280;35245;52.026;8.540;2022-12-29T08:06:58;-14100.28;;;-145.42;100.00
49367;BME280;35245;52.026;8.540;2022-12-29T08:09:25;-14100.28;;;-145.42;100.00
49367;BME280;35245;52.026;8.540;2022-12-29T08:11:54;-14100.28;;;-145.42;100.00
49367;BME280;35245;52.026;8.540;2022-12-29T08:14:21;-14100.28;;;-145.42;100.00
49367;BME280;35245;52.026;8.540;2022-12-29T08:16:48;-14100.28;;;-145.42;100.00
49367;BME280;35245;52.026;8.540;2022-12-29T08:19:15;-14100.28;;;-145.42;100.00
49367;BME280;35245;52.026;8.540;2022-12-29T08:21:43;-14100.28;;;-145.42;100.00
49367;BME280;35245;52.026;8.540;2022-12-29T08:24:11;-14100.28;;;-145.42;100.00
49367;BME280;35245;52.026;8.540;2022-12-29T08:26:38;-14100.28;;;-145.42;100.00
49367;BME280;35245;52.026;8.540;2022-12-29T08:29:06;-14100.28;;;-145.42;100.00
49367;BME280;35245;52.026;8.540;2022-12-29T08:31:33;-14100.28;;;-145.42;100.00
49367;BME280;35245;52.026;8.540;2022-12-29T08:34:00;-14100.28;;;-145.42;100.00
49367;BME280;35245;52.026;8.540;2022-12-29T08:36:29;-14100.28;;;-145.42;100.00
49367;BME280;35245;52.026;8.540;2022-12-29T08:38:56;-14100.28;;;-145.42;100.00
49367;BME280;35245;52.026;8.540;2022-12-29T08:41:25;-14100.28;;;-145.42;100.00
49367;BME280;35245;52.026;8.540;2022-12-29T08:43:52;-14100.28;;;-145.42;100.00
49367;BME280;35245;52.026;8.540;2022-12-29T08:46:19;-14100.28;;;-145.42;100.00
49367;BME280;35245;52.026;8.540;2022-12-29T08:48:46;-14100.28;;;-145.42;100.00
49367;BME280;35245;52.026;8.540;2022-12-29T08:51:14;-14100.28;;;-145.42;100.00
49367;BME280;35245;52.026;8.540;2022-12-29T08:53:41;-14100.28;;;-145.42;100.00
49367;BME280;35245;52.026;8.540;2022-12-29T08:56:09;-14100.28;;;-145.42;100.00
49367;BME280;35245;52.026;8.540;2022-12-29T08:58:38;-14100.28;;;-145.42;100.00
49367;BME280;35245;52.026;8.540;2022-12-29T09:01:06;-14100.28;;;-145.42;100.00
49367;BME280;35245;52.026;8.540;2022-12-29T09:03:33;-14100.28;;;-145.42;100.00
49367;BME280;35245;52.026;8.540;2022-12-29T09:06:01;-14100.28;;;-145.42;100.00
49367;BME280;35245;52.026;8.540;2022-12-29T09:08:28;-14100.28;;;-145.42;100.00
49367;BME280;35245;52.026;8.540;2022-12-29T09:10:55;-14100.28;;;-145.42;100.00
49367;BME280;35245;52.026;8.540;2022-12-29T09:13:22;-14100.28;;;-145.42;100.00
49367;BME280;35245;52.026;8.540;2022-12-29T09:15:58;-14100.28;;;-145.42;100.00
49367;BME280;35245;52.026;8.540;2022-12-29T09:18:25;-14100.28;;;-145.42;100.00
49367;BME280;35245;52.026;8.540;2022-12-29T09:20:57;-14100.28;;;-145.42;100.00
49367;BME280;35245;52.026;8.540;2022-12-29T09:23:25;-14100.28;;;-145.42;100.00
49367;BME280;35245;52.026;8.540;2022-12-29T09:25:52;-14100.28;;;-145.42;100.00
49367;BME280;35245;52.026;8.540;2022-12-29T09:28:20;-14100.28;;;-145.42;100.00
49367;BME280;35245;52.026;8.540;2022-12-29T09:30:47;-14100.28;;;-145.42;100.00
49367;BME280;35245;52.026;8.540;2022-12-29T09:33:16;-14100.28;;;-145.42;100.00
49367;BME280;35245;52.026;8.540;2022-12-29T09:35:45;-14100.28;;;-145.42;100.00
49367;BME280;35245;52.026;8.540;2022-12-29T09:38:16;-14100.28;;;-145.42;100.00
49367;BME280;35245;52.026;8.540;2022-12-29T09:40:48;-14100.28;;;-145.42;100.00
49367;BME280;35245;52.026;8.540;2022-12-29T09:43:43;-14100.28;;;-145.42;100.00
49367;BME280;35245;52.026;8.540;2022-12-29T09:46:24;-14100.28;;;-145.42;100.00
49367;BME280;35245;52.026;8.540;2022-12-29T09:49:05;-14100.28;;;-145.42;100.00
49367;BME280;35245;52.026;8.540;2022-12-29T09:51:36;-14100.28;;;-145.42;100.00
49367;BME280;35245;52.026;8.540;2022-12-29T09:54:24;-14100.28;;;-145.42;100.00
49367;BME280;35245;52.026;8.540;2022-12-29T09:56:56;-14100.28;;;-145.42;100.00
49367;BME280;35245;52.026;8.540;2022-12-29T09:59:27;-14100.28;;;-145.42;100.00
49367;BME280;35245;52.026;8.540;2022-12-29T10:02:04;-14100.28;;;-145.42;100.00
49367;BME280;35245;52.026;8.540;2022-12-29T10:04:35;-14100.28;;;-145.42;100.00
49367;BME280;35245;52.026;8.540;2022-12-29T10:07:08;-14100.28;;;-145.42;100.00
49367;BME280;35245;52.026;8.540;2022-12-29T10:09:49;-14100.28;;;-145.42;100.00
49367;BME280;35245;52.026;8.540;2022-12-29T10:12:27;-14100.28;;;-145.42;100.00
49367;BME280;35245;52.026;8.540;2022-12-29T10:15:10;-14100.28;;;-145.42;100.00
49367;BME280;35245;52.026;8.540;2022-12-29T10:17:48;-14100.28;;;-145.42;100.00
49367;BME280;35245;52.026;8.540;2022-12-29T10:20:28;-14100.28;;;-145.42;100.00
49367;BME280;35245;52.026;8.540;2022-12-29T10:23:18;-14100.28;;;-145.42;100.00
49367;BME280;35245;52.026;8.540;2022-12-29T10:25:49;-14100.28;;;-145.42;100.00
49367;BME280;35245;52.026;8.540;2022-12-29T10:28:22;-14100.28;;;-145.42;100.00
49367;BME280;35245;52.026;8.540;2022-12-29T10:30:51;-14100.28;;;-145.42;100.00
49367;BME280;35245;52.026;8.540;2022-12-29T10:33:23;-14100.28;;;-145.42;100.00
49367;BME280;35245;52.026;8.540;2022-12-29T10:35:54;-14100.28;;;-145.42;100.00
49367;BME280;35245;52.026;8.540;2022-12-29T10:38:28;-14100.28;;;-145.42;100.00
49367;BME280;35245;52.026;8.540;2022-12-29T10:41:05;-14100.28;;;-145.42;100.00
49367;BME280;35245;52.026;8.540;2022-12-29T10:43:44;-14100.28;;;-145.42;100.00
49367;BME280;35245;52.026;8.540;2022-12-29T10:46:15;-14100.28;;;-145.42;100.00
49367;BME280;35245;52.026;8.540;2022-12-29T10:48:44;-14100.28;;;-145.42;100.00
49367;BME280;35245;52.026;8.540;2022-12-29T10:51:21;-14100.28;;;-145.42;100.00
49367;BME280;35245;52.026;8.540;2022-12-29T10:53:53;-14100.28;;;-145.42;100.00
49367;BME280;35245;52.026;8.540;2022-12-29T10:56:31;-14098.81;;;-145.42;100.00
49367;BME280;35245;52.026;8.540;2022-12-29T10:59:05;-14100.28;;;-145.42;100.00
49367;BME280;35245;52.026;8.540;2022-12-29T11:01:45;-13599.78;;;-145.42;100.00
49367;BME280;35245;52.026;8.540;2022-12-29T11:04:35;-13849.31;;;-145.42;100.00
49367;BME280;35245;52.026;8.540;2022-12-29T11:07:07;-13849.31;;;-145.42;100.00
49367;BME280;35245;52.026;8.540;2022-12-29T11:09:37;-14098.81;;;-145.42;100.00
49367;BME280;35245;52.026;8.540;2022-12-29T11:12:21;-13849.31;;;-145.42;100.00
49367;BME280;35245;52.026;8.540;2022-12-29T11:15:11;-14100.28;;;-145.42;100.00
49367;BME280;35245;52.026;8.540;2022-12-29T11:17:45;-14100.28;;;-145.42;100.00
49367;BME280;35245;52.026;8.540;2022-12-29T11:20:32;-14100.28;;;-145.42;100.00
49367;BME280;35245;52.026;8.540;2022-12-29T11:23:02;-14100.28;;;-145.42;100.00
49367;BME280;35245;52.026;8.540;2022-12-29T11:25:30;-14100.28;;;-145.42;100.00
49367;BME280;35245;52.026;8.540;2022-12-29T11:28:01;-14100.28;;;-145.42;100.00
49367;BME280;35245;52.026;8.540;2022-12-29T11:30:31;-14100.28;;;-145.42;100.00
49367;BME280;35245;52.026;8.540;2022-12-29T11:32:59;-14100.28;;;-145.42;100.00
49367;BME280;35245;52.026;8.540;2022-12-29T11:35:33;-14100.28;;;-145.42;100.00
49367;BME280;35245;52.026;8.540;2022-12-29T11:38:02;-14100.28;;;-145.42;100.00
49367;BME280;35245;52.026;8.540;2022-12-29T11:40:31;-14100.28;;;-145.42;100.00
49367;BME280;35245;52.026;8.540;2022-12-29T11:43:01;-14100.28;;;-145.42;100.00
49367;BME280;35245;52.026;8.540;2022-12-29T11:45:31;-14100.28;;;-145.42;100.00
49367;BME280;35245;52.026;8.540;2022-12-29T11:48:06;-14100.28;;;-145.42;100.00
49367;BME280;35245;52.026;8.540;2022-12-29T11:50:38;-14100.28;;;-145.42;100.00
49367;BME280;35245;52.026;8.540;2022-12-29T11:53:16;-14100.28;;;-145.42;100.00
49367;BME280;35245;52.026;8.540;2022-12-29T11:55:53;-14100.28;;;-145.42;100.00
49367;BME280;35245;52.026;8.540;2022-12-29T11:58:29;-14100.28;;;-145.42;100.00
49367;BME280;35245;52.026;8.540;2022-12-29T12:01:01;-14100.28;;;-145.42;100.00
49367;BME280;35245;52.026;8.540;2022-12-29T12:03:34;-14100.28;;;-145.42;100.00
49367;BME280;35245;52.026;8.540;2022-12-29T12:06:04;-14098.81;;;-145.42;100.00
49367;BME280;35245;52.026;8.540;2022-12-29T12:08:39;-13599.78;;;-145.42;100.00
49367;BME280;35245;52.026;8.540;2022-12-29T12:11:13;-13350.22;;;-145.42;100.00
49367;BME280;35245;52.026;8.540;2022-12-29T12:13:51;-13100.66;;;-145.42;100.00
49367;BME280;35245;52.026;8.540;2022-12-29T12:16:26;-12851.06;;;-145.42;100.00
49367;BME280;35245;52.026;8.540;2022-12-29T12:18:58;-12601.47;;;-145.42;100.00
49367;BME280;35245;52.026;8.540;2022-12-29T12:21:36;-11353.22;;;-145.42;100.00
49367;BME280;35245;52.026;8.540;2022-12-29T12:24:31;-11353.22;;;-145.42;100.00
49367;BME280;35245;52.026;8.540;2022-12-29T12:27:12;-10354.34;;;-145.42;100.00
49367;BME280;35245;52.026;8.540;2022-12-29T12:29:46;-10354.34;;;-145.42;100.00
49367;BME280;35245;52.026;8.540;2022-12-29T12:32:22;-10354.34;;;-145.42;100.00
49367;BME280;35245;52.026;8.540;2022-12-29T12:34:52;-10604.09;;;-145.42;100.00
49367;BME280;35245;52.026;8.540;2022-12-29T12:37:48;-10354.34;;;-145.42;100.00
49367;BME280;35245;52.026;8.540;2022-12-29T12:40:43;-10354.34;;;-145.42;100.00
49367;BME280;35245;52.026;8.540;2022-12-29T12:43:39;-9854.81;;;-145.42;100.00
49367;BME280;35245;52.026;8.540;2022-12-29T12:49:49;-9605.00;;;-145.42;100.00